Other Surface Observations
Issued by NWS Great Falls, MT

Home | Current Version | Previous Version | Text Only | Print | Product List | Glossary On
Versions: 1 2 3 4 5 6 7 8 9 10 11 12 13 14 15 16 17 18 19 20 21 22 23 24 25 26 27 28 29 30 31 32 33 34 35 36 37 38 39 40 41 42 43 44 45 46 47 48 49 50
566
SXUS55 KTFX 041918
OSOTFX

AREA AWOS OBSERVATIONS
NATIONAL WEATHER SERVICE GREAT FALLS MT
0118 PM MDT Wed May 04 2016

METAR K7S0 041915Z AUTO 00000KT 10SM 23/04 A3003
METAR KRPX 041915Z AUTO 21007KT 10SM 27/02 A2990
METAR KS01 041855Z AUTO 00000KT 10SM 26/05 A2997



USA.gov is the U.S. government's official web portal to all federal, state and local government web resources and services.